Latest Weather Observations for Mount Lofty

IDS60901

Issued at 10:41 pm CST Monday 18 June 2018 (issued every 10 minutes, with the page automatically refreshed every 10 minutes)

About weather observations | Map of Adelaide area stations | Latest observations for Adelaide area | Other Formats
Station Details ID: 023842 Name: MOUNT LOFTY Lat: -34.98 Lon: 138.71 Height: 685.0 m
Data from the previous 72 hours. | See also: Recent months at Mount Lofty
Date/Time
CST
Temp
°C
App
Temp
°C
Dew
Point
°C
Rel
Hum
%
Delta-T
°C
Wind Press
QNH
hPa
Press
MSL
hPa
Rain since
9am
mm
Dir  Spd
km/h
Gust
km/h
Spd
kts
Gust
kts
18/10:30pm 4.6 2.8 3.6 93 0.4 ESE 2 6 1 3 - - 0.4
18/10:00pm 4.6 2.4 3.6 93 0.4 ESE 4 9 2 5 - - 0.4
18/09:30pm 4.7 2.6 3.8 94 0.4 ESE 4 7 2 4 - - 0.4
18/09:00pm 4.7 2.1 4.0 95 0.3 ESE 7 15 4 8 - - 0.4
18/08:30pm 4.9 2.5 4.3 96 0.3 E 6 13 3 7 - - 0.4
18/08:00pm 5.3 3.0 4.7 96 0.3 ESE 6 13 3 7 - - 0.4
18/07:30pm 5.6 4.1 4.9 95 0.3 ESE 2 7 1 4 - - 0.4
18/07:00pm 5.7 4.2 5.0 95 0.3 ESE 2 6 1 3 - - 0.4
18/06:30pm 5.7 4.5 4.7 93 0.5 CALM 0 0 0 0 - - 0.4
18/06:00pm 5.7 4.5 4.7 93 0.5 CALM 0 0 0 0 - - 0.4
18/05:30pm 6.0 4.9 5.1 94 0.4 CALM 0 0 0 0 - - 0.4
18/05:00pm 6.2 4.7 5.2 93 0.5 SSE 2 4 1 2 - - 0.2
18/04:30pm 6.5 5.5 5.6 94 0.4 CALM 0 0 0 0 - - 0.2
18/04:00pm 6.6 5.6 5.6 93 0.5 CALM 0 0 0 0 - - 0.2
18/03:30pm 6.5 5.5 5.6 94 0.4 CALM 0 0 0 0 - - 0.2
18/03:00pm 6.5 5.5 5.8 95 0.3 CALM 0 0 0 0 - - 0.2
18/02:30pm 6.3 4.5 5.6 95 0.3 WNW 4 6 2 3 - - 0.2
18/02:00pm 6.4 5.0 5.4 93 0.5 WSW 2 4 1 2 - - 0.2
18/01:30pm 6.2 4.4 5.2 93 0.5 ESE 4 6 2 3 - - 0.2
18/01:00pm 6.7 5.3 5.5 92 0.6 S 2 6 1 3 - - 0.2
18/12:30pm 6.9 5.3 6.5 97 0.2 ESE 4 7 2 4 - - 0.2
18/12:00pm 6.8 5.6 6.4 97 0.2 E 2 6 1 3 - - 0.2
18/11:30am 5.5 4.0 5.1 97 0.2 ESE 2 7 1 4 - - 0.2
18/11:00am 5.6 3.8 5.2 97 0.2 ESE 4 7 2 4 - - 0.2
18/10:30am 5.5 4.4 5.1 97 0.2 CALM 0 0 0 0 - - 0.2
18/10:00am 5.2 4.0 4.8 97 0.2 CALM 0 0 0 0 - - 0.0
18/09:30am 4.9 3.3 4.5 97 0.2 SE 2 6 1 3 - - 0.0
18/09:00am 5.0 3.0 4.6 97 0.2 ESE 4 11 2 6 - - 2.6
18/08:30am 4.9 3.3 4.5 97 0.2 SE 2 7 1 4 - - 2.6
18/08:00am 4.6 2.9 4.2 97 0.2 SE 2 7 1 4 - - 2.4
18/07:30am 4.5 2.8 4.1 97 0.2 ESE 2 7 1 4 - - 2.4
18/07:00am 4.4 2.3 4.0 97 0.2 SE 4 9 2 5 - - 2.2
18/06:30am 4.3 1.8 3.9 97 0.2 SE 6 15 3 8 - - 2.2
18/06:00am 4.4 2.3 4.0 97 0.2 SE 4 11 2 6 - - 2.2
18/05:30am 4.5 2.1 4.1 97 0.2 SSE 6 9 3 5 - - 2.2
18/05:00am 4.5 2.4 4.1 97 0.2 S 4 9 2 5 - - 2.2
18/04:30am 4.5 2.8 3.9 96 0.3 SSE 2 6 1 3 - - 2.0
18/04:00am 4.4 1.9 3.8 96 0.3 SSE 6 13 3 7 - - 1.6
18/03:30am 4.3 2.1 3.6 95 0.3 SSE 4 7 2 4 - - 1.6
18/03:00am 4.3 2.1 3.3 93 0.4 S 4 9 2 5 - - 1.6
18/02:30am 4.5 2.7 3.2 91 0.6 SSE 2 6 1 3 - - 1.4
18/02:00am 4.5 1.9 3.0 90 0.6 SE 6 11 3 6 - - 1.4
18/01:30am 4.7 2.2 3.5 92 0.5 SSE 6 13 3 7 - - 1.4
18/01:00am 4.4 2.2 3.1 91 0.6 SE 4 7 2 4 - - 1.4
18/12:30am 4.6 1.9 2.5 86 0.9 SSE 6 13 3 7 - - 1.4
18/12:00am 4.8 2.0 2.2 83 1.1 SSE 6 13 3 7 - - 1.4
 
Date/Time
CST
Temp
°C
App
Temp
°C
Dew
Point
°C
Rel
Hum
%
Delta-T
°C
Wind Press
QNH
hPa
Press
MSL
hPa
Rain since
9am
mm
Dir  Spd
km/h
Gust
km/h
Spd
kts
Gust
kts
17/11:30pm 5.0 2.2 2.2 82 1.2 SSE 6 15 3 8 - - 1.4
17/11:00pm 4.8 1.9 2.5 85 1.0 SSE 7 22 4 12 - - 1.4
17/10:30pm 4.7 1.7 1.9 82 1.2 S 7 15 4 8 - - 1.4
17/10:00pm 4.7 1.9 2.1 83 1.1 SSE 6 15 3 8 - - 1.4
17/09:30pm 4.8 1.9 2.5 85 1.0 S 7 15 4 8 - - 1.4
17/09:00pm 4.8 1.9 2.5 85 1.0 SSW 7 17 4 9 - - 1.4
17/08:30pm 5.0 2.1 2.5 84 1.1 S 7 20 4 11 - - 1.4
17/08:00pm 4.7 2.0 3.8 94 0.4 S 7 15 4 8 - - 1.4
17/07:30pm 5.0 2.5 3.5 90 0.7 S 6 13 3 7 - - 1.4
17/07:00pm 5.1 2.5 3.3 88 0.8 S 6 13 3 7 - - 1.4
17/06:30pm 5.1 2.5 3.1 87 0.9 SSW 6 13 3 7 - - 1.4
17/06:00pm 5.0 2.5 3.8 92 0.5 SSE 6 17 3 9 - - 1.4
17/05:30pm 5.1 2.4 3.6 90 0.7 SSW 7 15 4 8 - - 1.4
17/05:00pm 5.0 2.3 3.7 91 0.6 S 7 13 4 7 - - 1.4
17/04:30pm 5.5 2.9 4.2 91 0.6 S 7 20 4 11 - - 1.4
17/04:00pm 5.9 3.4 4.7 92 0.5 SSW 7 17 4 9 - - 1.4
17/03:30pm 5.6 2.7 4.7 94 0.4 S 9 19 5 10 - - 1.4
17/03:00pm 6.5 4.2 5.0 90 0.7 S 6 11 3 6 - - 1.0
17/02:30pm 5.8 3.2 4.4 91 0.6 S 7 15 4 8 - - 1.0
17/02:00pm 7.3 4.8 4.6 83 1.2 SW 7 15 4 8 - - 1.0
17/01:30pm 6.7 3.9 5.2 90 0.7 SSW 9 19 5 10 - - 1.0
17/01:00pm 5.9 2.7 4.9 93 0.5 SW 11 26 6 14 - - 1.0
17/12:30pm 6.1 3.3 5.2 94 0.4 SSW 9 19 5 10 - - 0.6
17/12:00pm 7.1 4.3 5.3 88 0.8 SW 9 19 5 10 - - 0.2
17/11:30am 6.0 3.2 5.3 95 0.3 SW 9 24 5 13 - - 0.2
17/11:00am 5.8 2.6 5.2 96 0.3 SW 11 26 6 14 - - 0.2
17/10:30am 5.6 2.8 5.0 96 0.3 SW 9 19 5 10 - - 0.2
17/10:00am 5.5 2.6 4.6 94 0.4 SW 9 22 5 12 - - 0.2
17/09:30am 5.7 2.0 4.2 90 0.7 SSW 13 26 7 14 - - 0.2
17/09:00am 5.3 2.0 4.7 96 0.3 SW 11 22 6 12 - - 6.0
17/08:30am 4.8 1.1 4.4 97 0.2 SW 13 24 7 13 - - 6.0
17/08:00am 4.5 0.7 4.1 97 0.2 SW 13 30 7 16 - - 6.0
17/07:30am 4.6 1.2 4.0 96 0.3 SW 11 22 6 12 - - 6.0
17/07:00am 4.6 1.2 3.9 95 0.3 SW 11 30 6 16 - - 6.0
17/06:30am 4.3 0.4 3.6 95 0.3 WSW 13 26 7 14 - - 6.0
17/06:00am 4.5 0.7 4.1 97 0.2 WSW 13 26 7 14 - - 6.0
17/05:30am 4.4 0.6 4.0 97 0.2 WSW 13 30 7 16 - - 6.0
17/05:00am 4.6 1.6 4.2 97 0.2 WSW 9 19 5 10 - - 6.0
17/04:30am 4.6 1.2 4.2 97 0.2 WSW 11 22 6 12 - - 5.8
17/04:00am 4.5 0.7 4.1 97 0.2 SW 13 26 7 14 - - 5.8
17/03:30am 4.3 0.5 3.7 96 0.3 SW 13 33 7 18 - - 5.8
17/03:00am 4.3 0.5 3.7 96 0.3 WSW 13 22 7 12 - - 5.8
17/02:30am 4.5 0.7 4.1 97 0.2 SW 13 20 7 11 - - 5.4
17/02:00am 4.3 0.8 3.7 96 0.3 SW 11 22 6 12 - - 5.4
17/01:30am 4.2 0.3 3.5 95 0.3 WSW 13 26 7 14 - - 4.8
17/01:00am 4.2 0.3 3.6 96 0.3 WSW 13 28 7 15 - - 4.8
17/12:30am 4.1 0.6 3.5 96 0.3 WSW 11 24 6 13 - - 4.6
17/12:00am 4.0 0.5 3.4 96 0.3 WSW 11 28 6 15 - - 4.6
 
Date/Time
CST
Temp
°C
App
Temp
°C
Dew
Point
°C
Rel
Hum
%
Delta-T
°C
Wind Press
QNH
hPa
Press
MSL
hPa
Rain since
9am
mm
Dir  Spd
km/h
Gust
km/h
Spd
kts
Gust
kts
16/11:30pm 3.6 0.4 2.9 95 0.3 WSW 9 19 5 10 - - 4.6
16/11:00pm 3.6 -0.1 2.3 91 0.5 WSW 11 26 6 14 - - 4.6
16/10:30pm 3.3 -0.4 2.3 93 0.4 WSW 11 24 6 13 - - 4.6
16/10:00pm 3.0 -0.8 1.8 92 0.5 WSW 11 22 6 12 - - 4.6
16/09:30pm 3.2 -0.6 1.6 89 0.7 SW 11 28 6 15 - - 4.6
16/09:00pm 3.0 -0.9 1.2 88 0.7 SW 11 22 6 12 - - 4.4
16/08:30pm 3.5 -0.7 1.5 87 0.8 SW 13 32 7 17 - - 4.4
16/08:00pm 3.4 -1.2 1.4 87 0.8 SW 15 28 8 15 - - 4.4
16/07:30pm 3.6 -1.0 1.6 87 0.8 WSW 15 30 8 16 - - 4.4
16/07:00pm 3.4 -0.7 2.1 91 0.5 WSW 13 33 7 18 - - 4.4
16/06:30pm 3.5 -0.5 2.8 95 0.3 WSW 13 24 7 13 - - 4.4
16/06:00pm 3.3 -0.7 2.9 97 0.2 WSW 13 22 7 12 - - 4.4
16/05:30pm 3.2 -0.4 2.8 97 0.2 SW 11 26 6 14 - - 4.4
16/05:00pm 3.6 -0.4 3.0 96 0.3 WSW 13 24 7 13 - - 3.6
16/04:30pm 3.7 -1.4 3.3 97 0.2 SW 19 35 10 19 - - 3.0
16/04:00pm 3.9 -1.2 3.2 95 0.3 WSW 19 46 10 25 - - 2.4
16/03:30pm 5.4 0.9 4.2 92 0.5 W 17 28 9 15 - - 0.8
16/03:00pm 5.3 1.6 4.4 94 0.4 WSW 13 22 7 12 - - 0.8
16/02:30pm 4.5 -0.1 3.5 93 0.4 W 17 44 9 24 - - 0.6
16/02:00pm 5.5 0.5 3.8 89 0.7 W 19 37 10 20 - - 0.4
16/01:30pm 5.0 0.5 4.1 94 0.4 W 17 35 9 19 - - 0.4
16/01:00pm 5.8 1.2 3.8 87 0.9 W 17 30 9 16 - - 0.4
16/12:30pm 5.5 0.9 3.7 88 0.8 W 17 35 9 19 - - 0.4
16/12:00pm 5.5 0.5 3.5 87 0.9 W 19 37 10 20 - - 0.4
16/11:30am 4.8 1.0 3.8 93 0.4 W 13 32 7 17 - - 0.4
16/11:00am 5.2 0.9 3.4 88 0.8 W 15 28 8 15 - - 0.0
16/10:30am 5.1 1.3 3.9 92 0.5 W 13 30 7 16 - - 0.0
16/10:00am 4.7 0.9 3.8 94 0.4 WSW 13 22 7 12 - - 0.0
16/09:30am 4.7 1.3 4.0 95 0.3 WSW 11 24 6 13 - - 0.0
16/09:00am 4.3 0.4 3.6 95 0.3 W 13 24 7 13 - - 12.0
16/08:30am 4.0 0.9 3.6 97 0.2 W 9 19 5 10 - - 12.0
16/08:00am 3.8 0.3 3.5 98 0.1 WSW 11 22 6 12 - - 11.8
16/07:30am 3.5 -0.1 3.2 98 0.1 WSW 11 22 6 12 - - 11.8
16/07:00am 3.7 0.6 3.4 98 0.1 W 9 22 5 12 - - 11.4
16/06:30am 3.8 -0.1 3.5 98 0.1 W 13 28 7 15 - - 11.4
16/06:00am 4.1 0.3 3.8 98 0.1 WSW 13 30 7 16 - - 11.0
16/05:30am 4.4 1.0 4.1 98 0.1 W 11 20 6 11 - - 10.8
16/05:00am 4.5 0.8 4.2 98 0.1 W 13 24 7 13 - - 10.8
16/04:30am 4.6 0.9 4.3 98 0.1 W 13 24 7 13 - - 10.8
16/04:00am 4.9 1.2 4.6 98 0.1 W 13 28 7 15 - - 10.8
16/03:30am 4.9 1.2 4.6 98 0.1 W 13 28 7 15 - - 10.8
16/03:00am 4.5 0.8 4.2 98 0.1 W 13 22 7 12 - - 10.6
16/02:30am 4.5 0.0 4.2 98 0.1 W 17 39 9 21 - - 10.4
16/02:00am 5.1 1.5 4.8 98 0.1 W 13 22 7 12 - - 10.2
16/01:30am 4.8 1.1 4.5 98 0.1 W 13 28 7 15 - - 9.8
16/01:00am 5.8 2.7 5.5 98 0.1 W 11 19 6 10 - - 8.8
16/12:30am 5.7 2.6 5.4 98 0.1 W 11 20 6 11 - - 8.8
16/12:00am 6.0 2.9 5.7 98 0.1 W 11 32 6 17 - - 7.6
 
Date/Time
CST
Temp
°C
App
Temp
°C
Dew
Point
°C
Rel
Hum
%
Delta-T
°C
Wind Press
QNH
hPa
Press
MSL
hPa
Rain since
9am
mm
Dir  Spd
km/h
Gust
km/h
Spd
kts
Gust
kts
15/11:30pm 6.0 2.9 5.7 98 0.1 W 11 20 6 11 - - 7.4
15/11:00pm 5.7 2.2 5.4 98 0.1 W 13 20 7 11 - - 7.4

Latest Capital City Observations: Canberra | Sydney | Melbourne | Brisbane | Adelaide | Perth | Hobart | Darwin

Other Formats:

Comma delimited format used in spreadsheet applications
http://www.bom.gov.au/fwo/IDS60901/IDS60901.95678.axf

JavaScript Object Notation format (JSON) in row-major order
http://www.bom.gov.au/fwo/IDS60901/IDS60901.95678.json